Time;durP1;ratioP1;P1;durP2;ratioP2;P2;SDS_P1;SDS_P2;PMS_P1;PMS_P2;Temp;Humidity;BMP_temperature;BMP_pressure;BME280_temperature;BME280_humidity;BME280_pressure;Samples;Min_cycle;Max_cycle;Signal;HPM_P1;HPM_P2
2022/10/22 00:01:18;;;;;;;2.17;1.90;;;14.10;99.90;;;;;;5046340;28;20729;-89
2022/10/22 00:03:45;;;;;;;2.77;1.10;;;14.20;99.90;;;;;;5039718;28;20638;-90
2022/10/22 00:06:12;;;;;;;2.93;1.60;;;14.20;99.90;;;;;;5036321;28;20742;-91
2022/10/22 00:08:39;;;;;;;3.73;1.70;;;14.10;99.90;;;;;;5041496;28;20637;-90
2022/10/22 00:11:12;;;;;;;5.33;1.60;;;14.20;99.90;;;;;;5050172;28;20606;-90
2022/10/22 00:13:41;;;;;;;2.03;1.40;;;14.20;99.90;;;;;;5046406;28;20630;-90
2022/10/22 00:16:08;;;;;;;2.03;1.00;;;14.20;99.90;;;;;;5038812;28;20669;-89
2022/10/22 00:18:35;;;;;;;2.07;1.87;;;14.10;99.90;;;;;;5041830;28;20656;-89
2022/10/22 00:21:02;;;;;;;3.07;1.10;;;14.00;99.90;;;;;;5044903;28;20724;-89
2022/10/22 00:23:29;;;;;;;1.40;1.20;;;14.00;99.90;;;;;;5043680;28;21208;-89
2022/10/22 00:25:56;;;;;;;2.10;0.90;;;13.90;99.90;;;;;;5040516;28;21074;-89
2022/10/22 00:28:24;;;;;;;0.77;0.63;;;13.90;99.90;;;;;;5039775;28;21408;-89
2022/10/22 00:30:57;;;;;;;1.80;0.63;;;13.90;99.90;;;;;;5035153;28;20606;-89
2022/10/22 00:33:24;;;;;;;1.00;0.63;;;13.80;99.90;;;;;;5043083;28;20606;-89
2022/10/22 00:35:51;;;;;;;5.17;0.80;;;13.70;99.90;;;;;;5039761;28;21243;-89
2022/10/22 00:38:18;;;;;;;1.97;0.80;;;13.70;99.90;;;;;;5045703;28;20621;-90
2022/10/22 00:40:46;;;;;;;0.60;0.60;;;13.70;99.90;;;;;;5039649;28;21260;-89
2022/10/22 00:43:16;;;;;;;1.83;0.77;;;13.60;99.90;;;;;;5044453;28;20716;-89
2022/10/22 00:45:43;;;;;;;1.50;0.90;;;13.70;99.90;;;;;;5046427;28;20681;-90
2022/10/22 00:48:15;;;;;;;3.80;1.07;;;13.60;99.90;;;;;;5048720;28;20634;-89
2022/10/22 00:50:45;;;;;;;1.77;0.90;;;13.70;99.90;;;;;;5039838;28;21236;-89
2022/10/22 00:53:15;;;;;;;2.67;1.13;;;13.70;99.90;;;;;;5043980;28;20658;-88
2022/10/22 00:55:43;;;;;;;2.97;0.90;;;13.70;99.90;;;;;;5037938;28;21090;-89
2022/10/22 00:58:10;;;;;;;3.97;1.10;;;13.60;99.90;;;;;;5043669;28;20643;-89
2022/10/22 01:00:37;;;;;;;2.53;1.40;;;13.60;99.90;;;;;;5043224;28;20730;-89
2022/10/22 01:03:05;;;;;;;2.50;1.17;;;13.60;99.90;;;;;;5043346;28;20733;-90
2022/10/22 01:05:39;;;;;;;2.07;0.77;;;13.60;99.90;;;;;;5045280;28;20681;-89
2022/10/22 01:08:08;;;;;;;2.07;0.77;;;13.60;99.90;;;;;;5045116;28;20707;-89
2022/10/22 01:10:48;;;;;;;1.20;1.10;;;13.60;99.90;;;;;;5043831;28;20692;-89
2022/10/22 01:13:28;;;;;;;1.93;0.80;;;13.60;99.90;;;;;;5044989;28;20705;-90
2022/10/22 01:16:01;;;;;;;2.87;1.10;;;13.60;99.90;;;;;;5038899;28;20762;-90
2022/10/22 01:18:37;;;;;;;2.73;1.20;;;13.60;99.90;;;;;;5041610;28;20994;-89
2022/10/22 01:21:12;;;;;;;3.07;0.73;;;13.60;99.90;;;;;;5039593;28;20641;-90
2022/10/22 01:24:06;;;;;;;2.10;0.90;;;13.60;99.90;;;;;;5039573;28;20613;-89
2022/10/22 01:26:43;;;;;;;1.10;1.00;;;13.60;99.90;;;;;;5049926;28;20941;-90
2022/10/22 01:29:15;;;;;;;1.90;0.87;;;13.50;99.90;;;;;;5048189;28;20733;-89
2022/10/22 01:31:46;;;;;;;1.10;1.00;;;13.40;99.90;;;;;;5044287;28;20724;-89
2022/10/22 01:34:17;;;;;;;1.83;0.80;;;13.40;99.90;;;;;;5044451;28;20661;-89
2022/10/22 01:36:45;;;;;;;1.07;0.83;;;13.50;99.90;;;;;;5044488;28;20698;-90
2022/10/22 01:39:14;;;;;;;1.03;0.80;;;13.40;99.90;;;;;;5044447;28;21244;-89
2022/10/22 01:41:44;;;;;;;1.40;0.70;;;13.40;99.90;;;;;;5042609;28;20641;-89
2022/10/22 01:44:27;;;;;;;2.93;1.30;;;13.40;99.90;;;;;;5046208;28;20609;-89
2022/10/22 01:47:02;;;;;;;1.60;1.00;;;13.40;99.90;;;;;;5044803;28;20602;-88
2022/10/22 01:49:39;;;;;;;1.70;1.07;;;13.30;99.90;;;;;;5049266;28;20639;-89
2022/10/22 01:52:15;;;;;;;2.87;1.17;;;13.40;99.90;;;;;;5044685;28;20610;-89
2022/10/22 01:54:49;;;;;;;2.60;1.27;;;13.30;99.90;;;;;;5045821;28;20681;-89
2022/10/22 01:57:27;;;;;;;3.40;1.10;;;13.40;99.90;;;;;;5046029;28;20781;-89
2022/10/22 02:00:01;;;;;;;11.87;1.80;;;13.40;99.90;;;;;;5046862;28;21196;-90
2022/10/22 02:02:36;;;;;;;1.83;1.30;;;13.30;99.90;;;;;;5049014;28;20636;-89
2022/10/22 02:05:08;;;;;;;1.20;1.10;;;13.30;99.90;;;;;;5045978;28;20645;-89
2022/10/22 02:07:47;;;;;;;2.60;1.40;;;13.40;99.90;;;;;;5045118;28;20617;-89
2022/10/22 02:10:15;;;;;;;1.87;1.00;;;13.20;99.90;;;;;;5045319;28;20668;-89
2022/10/22 02:12:45;;;;;;;1.47;1.10;;;13.40;99.90;;;;;;5041723;28;21052;-89
2022/10/22 02:15:17;;;;;;;1.10;1.10;;;13.40;99.90;;;;;;5046312;28;20678;-88
2022/10/22 02:17:46;;;;;;;2.70;1.43;;;13.40;99.90;;;;;;5042271;28;20631;-90
2022/10/22 02:20:17;;;;;;;2.33;1.00;;;13.40;99.90;;;;;;5046376;28;20638;-89
2022/10/22 02:22:44;;;;;;;1.10;0.97;;;13.40;99.90;;;;;;5047734;28;20661;-89
2022/10/22 02:25:12;;;;;;;1.37;0.83;;;13.40;99.90;;;;;;5043400;28;20768;-89
2022/10/22 02:27:46;;;;;;;1.07;0.87;;;13.40;99.90;;;;;;5043910;28;20992;-89
2022/10/22 02:30:17;;;;;;;1.23;0.87;;;13.20;99.90;;;;;;5043120;28;20642;-90
2022/10/22 02:32:50;;;;;;;1.63;0.90;;;13.40;99.90;;;;;;5038405;28;20619;-89
2022/10/22 02:35:20;;;;;;;4.20;0.90;;;13.40;99.90;;;;;;5040366;28;21175;-90
2022/10/22 02:37:47;;;;;;;2.93;0.93;;;13.40;99.90;;;;;;5038092;28;20652;-91
2022/10/22 02:40:14;;;;;;;2.50;1.10;;;13.40;99.90;;;;;;5046297;28;20636;-90
2022/10/22 02:42:42;;;;;;;3.33;0.90;;;13.30;99.90;;;;;;5039091;28;20646;-90
2022/10/22 02:45:10;;;;;;;2.50;1.20;;;13.30;99.90;;;;;;5043046;28;20756;-90
2022/10/22 02:47:39;;;;;;;5.13;2.10;;;13.30;99.90;;;;;;5022728;28;20645;-90
2022/10/22 02:50:07;;;;;;;1.47;0.90;;;13.30;99.90;;;;;;5044778;28;20730;-89
2022/10/22 02:52:34;;;;;;;2.80;1.30;;;13.30;99.90;;;;;;5044617;28;20872;-90
2022/10/22 02:55:01;;;;;;;1.20;0.97;;;13.30;99.90;;;;;;5042991;28;20769;-90
2022/10/22 02:57:28;;;;;;;2.90;1.10;;;13.20;99.90;;;;;;5045099;28;21477;-90
2022/10/22 02:59:55;;;;;;;0.70;0.70;;;13.20;99.90;;;;;;5044389;28;20749;-91
2022/10/22 03:02:22;;;;;;;1.27;0.90;;;13.30;99.90;;;;;;5039547;28;20741;-90
2022/10/22 03:04:51;;;;;;;3.17;0.77;;;13.30;99.90;;;;;;5042895;28;20659;-90
2022/10/22 03:07:18;;;;;;;3.47;1.10;;;13.30;99.90;;;;;;5043835;28;20667;-90
2022/10/22 03:09:45;;;;;;;1.43;1.00;;;13.10;99.90;;;;;;5045762;28;20700;-90
2022/10/22 03:12:12;;;;;;;2.30;1.03;;;13.20;99.90;;;;;;5044089;28;20658;-91
2022/10/22 03:14:39;;;;;;;0.70;0.70;;;13.20;99.90;;;;;;5045029;28;20753;-89
2022/10/22 03:17:06;;;;;;;2.17;1.00;;;13.10;99.90;;;;;;5042125;28;20647;-89
2022/10/22 03:19:33;;;;;;;1.53;1.00;;;13.00;99.90;;;;;;5046007;28;20612;-88
2022/10/22 03:22:03;;;;;;;2.30;1.00;;;13.00;99.90;;;;;;5051634;28;20614;-89
2022/10/22 03:24:35;;;;;;;1.70;1.17;;;13.00;99.90;;;;;;5052358;28;21247;-88
2022/10/22 03:27:02;;;;;;;2.53;1.20;;;13.00;99.90;;;;;;5043398;28;20623;-89
2022/10/22 03:29:31;;;;;;;2.30;0.80;;;12.90;99.90;;;;;;5037002;28;20626;-88
2022/10/22 03:31:58;;;;;;;2.90;1.20;;;13.10;99.90;;;;;;5046749;28;20638;-89
2022/10/22 03:34:25;;;;;;;2.40;0.87;;;13.10;99.90;;;;;;5025507;28;20646;-89
2022/10/22 03:36:53;;;;;;;2.13;0.90;;;13.10;99.90;;;;;;5047186;28;20680;-88
2022/10/22 03:39:22;;;;;;;1.67;0.77;;;12.80;99.90;;;;;;5044410;28;20623;-89
2022/10/22 03:41:50;;;;;;;1.67;1.10;;;12.90;99.90;;;;;;5041626;28;20645;-89
2022/10/22 03:44:17;;;;;;;2.70;1.13;;;13.10;99.90;;;;;;5043548;28;20626;-89
2022/10/22 03:46:44;;;;;;;2.57;1.03;;;12.80;99.90;;;;;;5044133;28;20993;-89
2022/10/22 03:49:11;;;;;;;1.93;1.07;;;13.10;99.90;;;;;;5045914;28;20630;-89
2022/10/22 03:51:38;;;;;;;2.30;1.10;;;12.70;99.90;;;;;;5041196;28;20729;-90
2022/10/22 03:54:05;;;;;;;3.10;1.03;;;13.10;99.90;;;;;;5037074;28;20640;-90
2022/10/22 03:56:34;;;;;;;1.80;0.90;;;13.20;99.90;;;;;;5042938;28;21032;-89
2022/10/22 03:59:01;;;;;;;1.23;0.93;;;12.70;99.90;;;;;;5042472;28;21171;-89
2022/10/22 04:01:29;;;;;;;1.10;0.87;;;12.80;99.90;;;;;;5039971;28;21246;-89
2022/10/22 04:03:57;;;;;;;2.03;0.73;;;13.20;99.90;;;;;;5037567;28;20622;-90
2022/10/22 04:06:24;;;;;;;1.13;0.70;;;13.20;99.90;;;;;;5036547;28;20756;-89
2022/10/22 04:08:51;;;;;;;1.30;0.83;;;13.20;99.90;;;;;;5043846;28;20634;-89
2022/10/22 04:11:17;;;;;;;1.97;0.70;;;13.20;99.90;;;;;;5041377;28;20632;-89
2022/10/22 04:13:46;;;;;;;1.73;0.80;;;13.20;99.90;;;;;;5042039;28;20968;-89
2022/10/22 04:16:15;;;;;;;1.00;0.87;;;13.10;99.90;;;;;;5040320;28;20692;-90
2022/10/22 04:18:42;;;;;;;2.57;0.97;;;13.10;99.90;;;;;;5041631;28;20626;-90
2022/10/22 04:21:11;;;;;;;5.47;1.27;;;12.80;99.90;;;;;;5042744;28;20633;-89
2022/10/22 04:23:39;;;;;;;1.10;1.00;;;12.70;99.90;;;;;;5043739;28;20626;-89
2022/10/22 04:26:08;;;;;;;1.47;0.70;;;13.10;99.90;;;;;;5043982;28;20725;-89
2022/10/22 04:28:35;;;;;;;1.57;0.90;;;12.80;99.90;;;;;;5044974;28;20717;-89
2022/10/22 04:31:08;;;;;;;2.87;1.27;;;13.10;99.90;;;;;;5037465;28;21194;-89
2022/10/22 04:33:35;;;;;;;1.47;1.23;;;13.10;99.90;;;;;;5042588;28;21215;-89
2022/10/22 04:36:07;;;;;;;5.73;0.90;;;13.10;99.90;;;;;;5038669;28;21311;-89
2022/10/22 04:38:34;;;;;;;2.40;1.13;;;13.10;99.90;;;;;;5044840;28;20630;-90
2022/10/22 04:41:09;;;;;;;0.80;0.63;;;13.00;99.90;;;;;;5041010;28;20625;-90
2022/10/22 04:43:35;;;;;;;2.10;0.80;;;12.60;99.90;;;;;;5043956;28;20638;-90
2022/10/22 04:46:04;;;;;;;1.43;0.90;;;12.80;99.90;;;;;;5041700;28;20682;-90
2022/10/22 04:48:31;;;;;;;5.83;0.60;;;13.00;99.90;;;;;;5046603;28;20617;-90
2022/10/22 04:50:59;;;;;;;1.07;0.87;;;13.00;99.90;;;;;;5045884;28;21625;-90
2022/10/22 04:53:26;;;;;;;2.60;1.17;;;13.00;99.90;;;;;;5037905;28;20626;-90
2022/10/22 04:55:53;;;;;;;3.87;1.13;;;12.90;99.90;;;;;;5042070;28;20764;-90
2022/10/22 04:58:20;;;;;;;2.60;0.90;;;13.10;99.90;;;;;;5044049;28;20659;-90
2022/10/22 05:00:47;;;;;;;2.97;0.70;;;13.00;99.90;;;;;;5043750;28;20642;-90
2022/10/22 05:03:15;;;;;;;3.23;1.00;;;13.00;99.90;;;;;;5036410;28;20629;-89
2022/10/22 05:05:42;;;;;;;1.13;1.00;;;13.20;99.90;;;;;;5043885;28;20737;-90
2022/10/22 05:08:09;;;;;;;1.30;0.60;;;12.80;99.90;;;;;;5042849;28;20630;-89
2022/10/22 05:10:35;;;;;;;1.97;0.83;;;12.80;99.90;;;;;;5037893;28;20622;-89
2022/10/22 05:13:02;;;;;;;0.63;0.63;;;13.10;99.90;;;;;;5046879;28;20637;-89
2022/10/22 05:15:29;;;;;;;2.47;0.77;;;12.70;99.90;;;;;;5046939;28;20677;-90
2022/10/22 05:17:56;;;;;;;1.67;0.70;;;13.20;99.90;;;;;;5048589;28;20622;-90
2022/10/22 05:20:24;;;;;;;2.00;0.70;;;13.20;99.90;;;;;;5047269;28;20628;-90
2022/10/22 05:22:52;;;;;;;3.27;0.97;;;13.20;99.90;;;;;;5054354;28;21524;-89
2022/10/22 05:25:19;;;;;;;2.20;1.23;;;13.10;99.90;;;;;;5052911;28;21328;-90
2022/10/22 05:27:49;;;;;;;3.23;0.80;;;12.70;99.90;;;;;;5054126;28;20630;-91
2022/10/22 05:30:16;;;;;;;0.70;0.70;;;12.60;99.90;;;;;;5049402;28;20637;-89
2022/10/22 05:32:44;;;;;;;2.47;0.97;;;12.90;99.90;;;;;;5048846;28;20677;-89
2022/10/22 05:35:11;;;;;;;1.40;0.60;;;12.50;99.90;;;;;;5048331;28;20661;-90
2022/10/22 05:37:39;;;;;;;6.80;1.30;;;12.60;99.90;;;;;;5044118;28;20981;-89
2022/10/22 05:40:07;;;;;;;1.70;0.90;;;12.50;99.90;;;;;;5047718;28;20625;-89
2022/10/22 05:42:34;;;;;;;2.27;1.03;;;12.80;99.90;;;;;;5047712;28;20642;-89
2022/10/22 05:45:00;;;;;;;2.67;0.80;;;12.50;99.90;;;;;;5047056;28;20646;-88
2022/10/22 05:47:29;;;;;;;2.77;1.00;;;12.70;99.90;;;;;;5045928;28;20641;-89
2022/10/22 05:49:57;;;;;;;1.73;1.13;;;12.80;99.90;;;;;;5043203;28;20621;-90
2022/10/22 05:52:24;;;;;;;1.33;0.70;;;13.10;99.90;;;;;;5046665;28;20992;-90
2022/10/22 05:54:52;;;;;;;2.63;1.13;;;13.10;99.90;;;;;;5042504;28;20662;-90
2022/10/22 05:57:19;;;;;;;1.60;0.87;;;13.20;99.90;;;;;;5041229;28;21812;-89
2022/10/22 05:59:46;;;;;;;3.33;1.00;;;13.20;99.90;;;;;;5048145;28;20714;-90
2022/10/22 06:02:13;;;;;;;1.60;1.10;;;13.30;99.90;;;;;;5045339;28;20650;-89
2022/10/22 06:04:40;;;;;;;1.47;0.80;;;13.10;99.90;;;;;;5043117;28;20668;-89
2022/10/22 06:07:14;;;;;;;3.27;1.10;;;13.40;99.90;;;;;;5048469;28;20630;-89
2022/10/22 06:09:41;;;;;;;1.67;1.47;;;13.50;99.90;;;;;;5043092;28;20614;-90
2022/10/22 06:12:12;;;;;;;1.53;1.43;;;13.50;99.90;;;;;;5042911;28;21011;-88
2022/10/22 06:14:39;;;;;;;1.40;1.30;;;13.60;99.90;;;;;;5041035;28;20668;-89
2022/10/22 06:17:06;;;;;;;1.67;1.33;;;13.60;99.90;;;;;;5046466;28;20687;-89
2022/10/22 06:19:33;;;;;;;1.07;0.90;;;13.60;99.90;;;;;;5043802;28;20721;-89
2022/10/22 06:22:00;;;;;;;1.70;1.20;;;13.50;99.90;;;;;;5048408;28;20632;-89
2022/10/22 06:24:27;;;;;;;2.03;1.07;;;13.50;99.90;;;;;;5045176;28;20669;-89
2022/10/22 06:26:53;;;;;;;2.20;1.07;;;13.60;99.90;;;;;;5041137;28;20646;-88
2022/10/22 06:29:22;;;;;;;3.47;1.00;;;13.60;99.90;;;;;;5045026;28;20705;-88
2022/10/22 06:31:49;;;;;;;1.20;1.10;;;13.60;99.90;;;;;;5049837;28;20722;-88
2022/10/22 06:34:17;;;;;;;3.17;1.67;;;13.60;99.90;;;;;;5050938;28;21167;-88
2022/10/22 06:36:45;;;;;;;1.50;1.40;;;13.30;99.90;;;;;;5055213;28;21068;-88
2022/10/22 06:39:13;;;;;;;2.77;1.60;;;13.60;99.90;;;;;;5052537;28;20636;-89
2022/10/22 06:41:40;;;;;;;1.47;1.27;;;13.50;99.90;;;;;;5043106;28;20645;-89
2022/10/22 06:44:07;;;;;;;2.47;1.40;;;13.40;99.90;;;;;;5052963;28;20634;-88
2022/10/22 06:46:35;;;;;;;3.57;1.37;;;13.30;99.90;;;;;;5037584;28;20691;-89
2022/10/22 06:49:05;;;;;;;1.27;1.17;;;13.50;99.90;;;;;;5045164;28;20634;-89
2022/10/22 06:51:32;;;;;;;1.23;0.70;;;13.50;99.90;;;;;;5044173;28;21240;-90
2022/10/22 06:53:59;;;;;;;2.90;1.27;;;13.20;99.90;;;;;;5052788;28;20622;-89
2022/10/22 06:56:28;;;;;;;1.93;0.90;;;13.30;99.90;;;;;;5052270;28;20666;-89
2022/10/22 06:58:58;;;;;;;1.60;1.33;;;13.70;99.90;;;;;;5045588;28;20652;-89
2022/10/22 07:01:27;;;;;;;3.00;1.07;;;13.30;99.90;;;;;;5034627;28;21225;-90
2022/10/22 07:03:55;;;;;;;2.17;1.00;;;13.70;99.90;;;;;;5047123;28;20630;-90
2022/10/22 07:06:24;;;;;;;4.17;1.10;;;13.70;99.90;;;;;;5047402;28;20622;-89
2022/10/22 07:08:51;;;;;;;4.77;1.27;;;13.80;99.90;;;;;;5043701;28;20635;-89
2022/10/22 07:11:20;;;;;;;4.27;0.97;;;13.80;99.90;;;;;;5047436;28;20661;-89
2022/10/22 07:13:47;;;;;;;2.70;1.27;;;13.90;99.90;;;;;;5051707;28;20639;-90
2022/10/22 07:16:16;;;;;;;2.07;1.17;;;13.80;99.90;;;;;;5043586;28;20973;-90
2022/10/22 07:18:44;;;;;;;13.43;11.30;;;13.70;99.90;;;;;;5047407;28;20641;-90
2022/10/22 07:21:13;;;;;;;9.70;4.93;;;13.80;99.90;;;;;;5050935;28;21062;-90
2022/10/22 07:23:41;;;;;;;3.00;2.27;;;13.40;99.90;;;;;;5059657;28;20606;-89
2022/10/22 07:26:08;;;;;;;4.73;3.47;;;13.90;99.90;;;;;;5054978;28;20626;-89
2022/10/22 07:28:36;;;;;;;53.23;46.67;;;13.50;99.90;;;;;;5053227;28;20744;-89
2022/10/22 07:31:04;;;;;;;8.60;4.13;;;13.90;99.90;;;;;;5043932;28;20638;-91
2022/10/22 07:33:30;;;;;;;4.93;2.70;;;13.80;99.90;;;;;;5031009;28;20630;-91
2022/10/22 07:35:59;;;;;;;9.13;3.30;;;13.80;99.90;;;;;;5043218;28;20618;-90
2022/10/22 07:38:28;;;;;;;5.77;4.03;;;13.80;99.90;;;;;;5046327;28;20965;-90
2022/10/22 07:40:55;;;;;;;6.63;6.03;;;13.90;99.90;;;;;;5051058;28;20656;-92
2022/10/22 07:43:23;;;;;;;3.43;3.13;;;14.00;99.90;;;;;;5053955;28;20721;-91
2022/10/22 07:45:51;;;;;;;5.23;2.87;;;14.10;99.90;;;;;;5053814;28;20745;-92
2022/10/22 07:48:18;;;;;;;3.77;2.80;;;14.20;99.90;;;;;;5056444;28;20636;-91
2022/10/22 07:50:45;;;;;;;2.53;2.20;;;14.30;99.90;;;;;;5039342;28;20738;-90
2022/10/22 07:53:11;;;;;;;4.07;2.40;;;14.50;99.90;;;;;;5051356;28;20617;-91
2022/10/22 07:55:40;;;;;;;4.03;2.00;;;14.50;99.90;;;;;;5048658;28;21262;-91
2022/10/22 08:00:49;;;;;;;2.50;1.60;;;14.60;99.90;;;;;;5056754;28;21182;-90
2022/10/22 08:03:17;;;;;;;4.53;1.57;;;14.70;99.90;;;;;;5050382;28;20634;-90
2022/10/22 08:05:44;;;;;;;3.10;2.17;;;14.80;99.90;;;;;;5045657;28;21207;-90
2022/10/22 08:08:12;;;;;;;2.50;1.77;;;14.80;99.90;;;;;;5045710;28;20632;-89
2022/10/22 08:10:41;;;;;;;7.43;2.37;;;14.90;99.90;;;;;;5042309;28;20650;-89
2022/10/22 08:13:08;;;;;;;2.20;2.00;;;14.60;99.90;;;;;;5042700;28;20630;-90
2022/10/22 08:15:36;;;;;;;3.53;2.97;;;14.90;99.90;;;;;;5042234;28;20627;-90
2022/10/22 08:18:03;;;;;;;2.80;2.43;;;14.80;99.90;;;;;;5043932;28;20676;-91
2022/10/22 08:20:30;;;;;;;4.10;1.40;;;14.80;99.90;;;;;;5046394;28;20675;-91
2022/10/22 08:22:58;;;;;;;2.57;1.77;;;14.80;99.90;;;;;;5044905;28;20718;-92
2022/10/22 08:25:25;;;;;;;2.90;2.27;;;14.80;99.90;;;;;;5045257;28;20693;-91
2022/10/22 08:27:53;;;;;;;2.73;2.50;;;14.90;99.90;;;;;;5044904;28;20628;-91
2022/10/22 08:30:20;;;;;;;4.00;2.43;;;14.90;99.90;;;;;;5039221;28;20720;-92
2022/10/22 08:32:47;;;;;;;2.53;2.33;;;15.20;99.90;;;;;;5038950;28;20666;-91
2022/10/22 08:35:14;;;;;;;4.27;2.30;;;15.50;99.90;;;;;;5046325;28;20688;-91
2022/10/22 08:37:41;;;;;;;3.67;2.27;;;15.80;99.90;;;;;;5045746;28;21046;-91
2022/10/22 08:40:19;;;;;;;2.10;1.53;;;15.90;99.90;;;;;;5047093;28;20664;-91
2022/10/22 08:43:22;;;;;;;1.47;1.30;;;16.00;99.90;;;;;;5036701;28;20672;-91
2022/10/22 08:45:58;;;;;;;4.87;1.60;;;16.00;99.90;;;;;;5041983;28;21100;-91
2022/10/22 08:48:41;;;;;;;4.80;1.50;;;16.10;99.90;;;;;;5046614;28;20632;-91
2022/10/22 08:51:14;;;;;;;2.03;1.80;;;16.20;99.90;;;;;;5045445;28;20684;-92
2022/10/22 08:53:53;;;;;;;1.00;1.00;;;16.10;99.90;;;;;;5043916;28;20624;-91
2022/10/22 08:56:23;;;;;;;3.20;1.23;;;16.20;99.90;;;;;;5046478;28;21435;-90
2022/10/22 08:58:59;;;;;;;4.10;1.27;;;16.20;99.90;;;;;;5048202;28;20606;-89
2022/10/22 09:01:35;;;;;;;1.20;0.97;;;16.30;99.90;;;;;;5043870;28;20734;-91
2022/10/22 09:04:08;;;;;;;2.40;1.10;;;16.70;99.90;;;;;;5049845;28;20697;-90
2022/10/22 09:06:38;;;;;;;2.93;1.20;;;17.00;99.90;;;;;;5043862;28;21161;-90
2022/10/22 09:09:12;;;;;;;1.03;1.00;;;17.20;99.90;;;;;;5049442;28;20641;-92
2022/10/22 09:11:42;;;;;;;1.53;0.87;;;17.40;99.90;;;;;;5050837;28;20653;-91
2022/10/22 09:14:17;;;;;;;2.13;0.70;;;17.20;99.90;;;;;;5049235;28;20738;-91
2022/10/22 09:17:05;;;;;;;11.00;2.93;;;16.60;99.90;;;;;;5042738;28;20673;-89
2022/10/22 09:19:40;;;;;;;1.43;0.87;;;17.00;99.90;;;;;;5048966;28;20640;-89
2022/10/22 09:22:22;;;;;;;2.77;1.10;;;17.00;99.90;;;;;;5051069;28;20660;-93
2022/10/22 09:24:58;;;;;;;2.57;1.30;;;17.40;99.90;;;;;;5047098;28;21217;-90
2022/10/22 09:27:29;;;;;;;2.57;1.10;;;18.20;99.90;;;;;;5056957;28;21282;-91
2022/10/22 09:29:58;;;;;;;1.73;0.90;;;18.80;99.90;;;;;;5060147;28;20648;-90
2022/10/22 09:32:32;;;;;;;2.30;0.83;;;19.00;99.90;;;;;;5058402;28;20693;-89
2022/10/22 09:35:00;;;;;;;0.80;0.80;;;18.50;99.90;;;;;;5057837;28;21286;-90
2022/10/22 09:37:29;;;;;;;1.30;0.90;;;18.90;99.90;;;;;;5050897;28;20657;-89
2022/10/22 09:39:57;;;;;;;2.30;1.23;;;18.60;99.90;;;;;;5048065;28;20656;-90
2022/10/22 09:42:25;;;;;;;1.13;0.90;;;18.30;99.90;;;;;;5050773;28;20657;-90
2022/10/22 09:44:54;;;;;;;2.70;0.90;;;19.10;99.90;;;;;;5029931;28;20639;-91
2022/10/22 09:47:34;;;;;;;0.70;0.70;;;19.40;99.90;;;;;;5049334;28;20640;-91
2022/10/22 09:50:29;;;;;;;2.40;0.70;;;19.60;99.90;;;;;;5048828;28;20661;-90
2022/10/22 09:53:04;;;;;;;8.10;1.00;;;19.70;99.90;;;;;;5005812;28;20648;-91
2022/10/22 09:55:31;;;;;;;2.10;0.90;;;20.30;99.90;;;;;;5059298;28;20673;-91
2022/10/22 09:58:02;;;;;;;2.93;0.87;;;19.70;99.90;;;;;;5043743;28;20650;-91
2022/10/22 10:00:33;;;;;;;3.50;1.30;;;20.80;99.90;;;;;;5041608;28;20651;-91
2022/10/22 10:03:02;;;;;;;1.50;1.00;;;21.60;99.90;;;;;;5061966;28;20645;-92
2022/10/22 10:05:32;;;;;;;1.10;0.77;;;21.80;99.90;;;;;;5052604;28;20617;-92
2022/10/22 10:08:08;;;;;;;4.73;0.97;;;22.20;99.90;;;;;;5053901;28;20704;-91
2022/10/22 10:10:42;;;;;;;1.70;0.97;;;21.70;99.90;;;;;;5059727;28;20641;-92
2022/10/22 10:13:33;;;;;;;1.90;1.80;;;22.60;99.90;;;;;;5058941;28;20636;-92
2022/10/22 10:16:13;;;;;;;0.80;0.60;;;23.60;99.90;;;;;;5046645;28;20712;-93
2022/10/22 10:19:20;;;;;;;3.50;0.57;;;23.30;99.90;;;;;;5050756;28;20709;-92
2022/10/22 10:22:10;;;;;;;2.80;0.90;;;24.10;99.90;;;;;;5061699;28;20661;-91
2022/10/22 10:24:53;;;;;;;1.43;0.70;;;23.60;99.90;;;;;;5070473;28;20652;-92
2022/10/22 10:27:26;;;;;;;0.80;0.40;;;23.40;99.90;;;;;;5069894;28;20633;-91
2022/10/22 10:30:06;;;;;;;1.93;0.73;;;21.90;99.90;;;;;;5072468;28;20660;-93
2022/10/22 10:33:01;;;;;;;4.00;1.63;;;23.10;99.90;;;;;;5069580;28;20729;-93
2022/10/22 10:35:36;;;;;;;2.83;0.67;;;24.10;99.90;;;;;;5069478;28;21208;-91
2022/10/22 10:38:17;;;;;;;2.40;0.97;;;24.20;99.90;;;;;;5051183;28;21081;-93
2022/10/22 10:40:53;;;;;;;1.00;0.57;;;23.60;99.90;;;;;;5041035;28;20693;-93
2022/10/22 10:43:43;;;;;;;3.50;0.80;;;24.80;98.90;;;;;;5042637;28;20701;-92
2022/10/22 10:46:20;;;;;;;4.03;0.80;;;25.30;94.80;;;;;;5052130;28;21640;-95
2022/10/22 10:48:54;;;;;;;1.07;0.80;;;26.10;94.60;;;;;;5055734;28;20649;-95
2022/10/22 10:52:00;;;;;;;0.93;0.70;;;26.20;90.30;;;;;;5055940;28;20633;-95
2022/10/22 10:55:09;;;;;;;0.87;0.63;;;26.20;91.60;;;;;;4958897;28;20677;-93
2022/10/22 10:58:32;;;;;;;0.97;0.57;;;27.60;81.60;;;;;;5051860;28;20768;-95
2022/10/22 11:04:48;;;;;;;1.73;0.83;;;28.10;76.20;;;;;;5045101;28;20668;-92
2022/10/22 11:07:31;;;;;;;1.53;0.70;;;26.50;85.50;;;;;;5049034;28;20625;-92
2022/10/22 11:10:09;;;;;;;1.50;0.63;;;28.70;76.20;;;;;;5048394;28;21073;-91
2022/10/22 11:13:08;;;;;;;1.63;0.90;;;29.00;70.70;;;;;;5049986;28;20685;-92
2022/10/22 11:16:03;;;;;;;3.73;0.90;;;27.40;80.40;;;;;;5031143;28;20638;-93
2022/10/22 11:19:13;;;;;;;0.93;0.80;;;26.40;81.60;;;;;;5062633;28;20677;-94
2022/10/22 11:21:58;;;;;;;2.87;1.23;;;24.30;92.60;;;;;;5025148;28;20643;-93
2022/10/22 11:24:34;;;;;;;2.43;0.80;;;23.50;97.60;;;;;;5051258;28;21148;-91
2022/10/22 11:27:19;;;;;;;2.40;0.70;;;23.30;98.60;;;;;;5046169;28;20687;-93
2022/10/22 11:30:14;;;;;;;3.90;0.83;;;25.40;91.30;;;;;;5046643;28;21233;-92
2022/10/22 11:33:13;;;;;;;2.60;0.87;;;27.00;78.50;;;;;;5055923;28;20976;-93
2022/10/22 11:39:04;;;;;;;2.50;0.87;;;28.50;65.80;;;;;;5035780;28;20684;-92
2022/10/22 11:42:11;;;;;;;1.10;0.80;;;29.60;60.50;;;;;;5052895;28;20625;-92
2022/10/22 11:45:09;;;;;;;1.73;1.10;;;30.60;58.70;;;;;;5042483;28;20652;-92
2022/10/22 11:48:17;;;;;;;2.77;0.93;;;29.60;57.60;;;;;;5047323;28;20629;-92
2022/10/22 11:50:51;;;;;;;2.30;0.80;;;28.30;59.70;;;;;;5043562;28;20669;-92
2022/10/22 11:53:52;;;;;;;2.20;0.90;;;29.30;58.90;;;;;;5046820;28;20661;-93
2022/10/22 11:57:07;;;;;;;1.53;0.80;;;30.80;54.20;;;;;;5013201;28;20638;-93
2022/10/22 12:09:18;;;;;;;2.30;0.97;;;30.00;51.70;;;;;;4988221;28;20238;-93
2022/10/22 12:39:15;;;;;;;2.33;0.90;;;30.50;53.00;;;;;;5101757;27;20685;-92
2022/10/22 12:45:27;;;;;;;2.77;0.90;;;24.10;66.50;;;;;;5033796;28;20639;-92
2022/10/22 12:48:12;;;;;;;1.57;0.97;;;25.30;69.30;;;;;;5079287;28;20668;-92
2022/10/22 12:51:40;;;;;;;2.60;1.30;;;27.30;63.60;;;;;;5085765;28;20707;-91
2022/10/22 12:55:07;;;;;;;1.93;1.20;;;26.50;65.90;;;;;;5056542;28;20635;-91
2022/10/22 13:01:07;;;;;;;1.13;0.80;;;30.30;56.50;;;;;;5048640;28;20608;-92
2022/10/22 13:07:04;;;;;;;2.90;1.30;;;31.60;50.70;;;;;;5020871;28;20696;-93
2022/10/22 13:10:08;;;;;;;1.87;0.77;;;31.60;50.10;;;;;;5027445;28;20619;-93
2022/10/22 13:12:55;;;;;;;2.13;0.90;;;31.10;49.10;;;;;;5065451;28;20221;-93
2022/10/22 13:15:42;;;;;;;1.23;0.70;;;31.10;50.70;;;;;;5085340;28;20206;-93
2022/10/22 13:21:51;;;;;;;4.60;0.88;;;31.90;49.20;;;;;;4969014;28;20214;-94
2022/10/22 13:24:36;;;;;;;1.73;0.90;;;32.30;48.40;;;;;;5013156;28;20324;-93
2022/10/22 13:27:03;;;;;;;2.60;0.77;;;32.50;46.30;;;;;;5071539;28;20213;-93
2022/10/22 13:29:37;;;;;;;1.02;0.80;;;32.10;48.20;;;;;;5080818;28;20201;-93
2022/10/22 13:32:22;;;;;;;2.10;0.90;;;31.80;47.70;;;;;;5088668;28;20202;-93
2022/10/22 13:34:50;;;;;;;3.73;0.97;;;28.10;50.50;;;;;;5090080;28;20288;-93
2022/10/22 13:37:27;;;;;;;2.23;0.80;;;28.20;53.30;;;;;;5086250;28;21509;-93
2022/10/22 13:40:00;;;;;;;2.87;1.13;;;29.40;51.40;;;;;;5073595;28;20624;-91
2022/10/22 13:42:34;;;;;;;2.90;0.90;;;30.60;48.20;;;;;;5080222;28;20632;-92
2022/10/22 13:45:04;;;;;;;1.00;0.80;;;30.00;46.80;;;;;;5054297;28;20205;-91
2022/10/22 13:47:53;;;;;;;1.77;0.90;;;28.50;47.40;;;;;;5048675;28;20239;-93
2022/10/22 13:50:28;;;;;;;2.17;1.00;;;29.60;47.60;;;;;;5055161;28;20739;-93
2022/10/22 13:52:59;;;;;;;3.00;0.87;;;29.10;47.10;;;;;;5051343;28;20656;-93
2022/10/22 13:55:28;;;;;;;1.33;0.90;;;28.70;47.60;;;;;;5052775;28;20621;-94
2022/10/22 13:58:04;;;;;;;2.40;1.20;;;28.00;49.40;;;;;;5050711;28;20726;-93
2022/10/22 14:00:35;;;;;;;1.80;0.90;;;28.70;47.50;;;;;;5052546;28;20759;-91
2022/10/22 14:03:08;;;;;;;1.90;0.83;;;28.80;46.90;;;;;;5044915;28;20644;-94
2022/10/22 14:05:38;;;;;;;2.23;1.20;;;28.70;48.20;;;;;;5049413;28;20976;-93
2022/10/22 14:08:11;;;;;;;3.70;1.10;;;29.20;47.80;;;;;;5052784;28;20726;-92
2022/10/22 14:10:44;;;;;;;1.57;0.97;;;28.10;48.70;;;;;;5052832;28;20667;-90
2022/10/22 14:13:15;;;;;;;2.30;1.00;;;28.60;48.00;;;;;;5053448;28;20625;-93
2022/10/22 14:15:45;;;;;;;1.83;0.80;;;28.50;47.80;;;;;;5053392;28;20628;-94